Time;durP1;ratioP1;P1;durP2;ratioP2;P2;SDS_P1;SDS_P2;PMS_P1;PMS_P2;Temp;Humidity;BMP_temperature;BMP_pressure;BME280_temperature;BME280_humidity;BME280_pressure;Samples;Min_cycle;Max_cycle;Signal;HPM_P1;HPM_P2
2021/04/04 00:06:54;;;;;;;11.60;6.90;;;;;;;1.06;72.56;98964.43;469141;1196;103488;-41
2021/04/04 00:16:58;;;;;;;14.23;6.77;;;;;;;0.89;72.64;98966.18;469260;1196;103242;-41
2021/04/04 00:27:03;;;;;;;11.77;5.60;;;;;;;0.74;72.61;98984.22;468162;1196;103254;-41
2021/04/04 00:37:07;;;;;;;15.43;5.97;;;;;;;0.47;72.87;98982.63;469035;1196;103213;-41
2021/04/04 00:47:11;;;;;;;13.60;6.40;;;;;;;0.37;72.64;98986.34;469249;1196;103257;-41
2021/04/04 00:57:16;;;;;;;10.13;5.47;;;;;;;0.25;72.66;98989.23;468597;1195;104802;-41
2021/04/04 01:07:20;;;;;;;13.77;6.57;;;;;;;0.13;73.06;98995.66;468196;1196;104681;-41
2021/04/04 01:17:27;;;;;;;13.27;6.20;;;;;;;0.04;72.72;98995.77;470394;1162;103230;-42
2021/04/04 01:27:40;;;;;;;11.90;5.90;;;;;;;-0.18;72.84;99003.10;469371;1196;103206;-41
2021/04/04 01:37:47;;;;;;;13.70;6.00;;;;;;;-0.28;73.08;99009.34;468905;1195;103253;-41
2021/04/04 01:47:52;;;;;;;13.73;6.43;;;;;;;-0.40;72.74;99017.39;468490;1195;103690;-43
2021/04/04 01:57:57;;;;;;;15.77;6.80;;;;;;;-0.54;73.10;99011.90;468214;1196;103197;-42
2021/04/04 02:08:07;;;;;;;16.45;7.15;;;;;;;-0.63;73.27;99019.63;468816;1196;103603;-41
2021/04/04 02:18:14;;;;;;;13.70;6.80;;;;;;;-0.68;73.32;99021.86;469010;1196;103200;-41
2021/04/04 02:28:18;;;;;;;19.37;7.87;;;;;;;-0.82;73.07;99022.36;469037;1196;103603;-41
2021/04/04 02:38:26;;;;;;;18.03;7.60;;;;;;;-0.92;72.97;99024.22;468688;1196;103210;-41
2021/04/04 02:48:33;;;;;;;22.37;9.47;;;;;;;-1.04;73.22;99021.00;468935;1196;103225;-41
2021/04/04 02:58:41;;;;;;;18.27;7.90;;;;;;;-1.10;73.29;99020.78;469012;1196;104726;-41
2021/04/04 03:19:06;;;;;;;14.67;6.70;;;;;;;-1.19;73.48;99029.41;468724;1195;103514;-42
2021/04/04 03:29:12;;;;;;;13.60;6.03;;;;;;;-1.15;73.55;99028.19;468533;1196;103491;-42
2021/04/04 03:39:16;;;;;;;17.33;7.70;;;;;;;-1.29;73.46;99032.08;468949;1196;103498;-41
2021/04/04 03:49:23;;;;;;;17.80;8.25;;;;;;;-1.48;73.55;99043.34;468664;1196;103568;-41
2021/04/04 03:59:30;;;;;;;16.43;8.27;;;;;;;-1.45;73.73;99040.47;468872;1196;104789;-40
2021/04/04 04:09:35;;;;;;;17.17;8.07;;;;;;;-1.41;73.53;99048.80;468699;1196;103497;-40
2021/04/04 04:19:39;;;;;;;15.80;7.43;;;;;;;-1.35;73.86;99046.45;469094;1195;103204;-40
2021/04/04 04:29:44;;;;;;;18.50;7.17;;;;;;;-1.37;73.61;99045.77;468216;1196;103136;-40
2021/04/04 04:39:49;;;;;;;20.00;9.90;;;;;;;-1.20;73.64;99051.95;468405;1196;104492;-41
2021/04/04 04:49:53;;;;;;;19.27;9.00;;;;;;;-1.04;73.85;99051.33;469241;1194;103258;-40
2021/04/04 05:00:00;;;;;;;20.57;13.77;;;;;;;-0.11;74.04;99048.30;468878;1196;104640;-40
2021/04/04 05:10:08;;;;;;;24.83;15.13;;;;;;;0.60;73.73;99061.09;468215;1196;103219;-40
2021/04/04 05:20:12;;;;;;;20.07;10.73;;;;;;;2.04;73.50;99059.09;469255;1196;104672;-41
2021/04/04 05:30:18;;;;;;;35.70;20.20;;;;;;;3.36;72.68;99056.69;469142;1196;103283;-42
2021/04/04 05:40:25;;;;;;;43.85;20.35;;;;;;;4.50;72.16;99058.36;468877;1196;103225;-41
2021/04/04 05:50:28;;;;;;;24.03;12.93;;;;;;;5.36;71.58;99062.84;468441;1196;103552;-41
2021/04/04 06:00:33;;;;;;;17.63;7.93;;;;;;;5.74;70.32;99063.44;468576;1196;103239;-42
2021/04/04 06:21:08;;;;;;;12.17;6.40;;;;;;;6.04;67.90;99052.81;468534;1196;103219;-41
2021/04/04 06:31:15;;;;;;;16.45;6.30;;;;;;;6.70;67.84;99053.25;468786;1196;103571;-40
2021/04/04 06:41:24;;;;;;;13.60;6.00;;;;;;;7.32;67.55;99054.91;469100;1196;103229;-41
2021/04/04 07:12:08;;;;;;;4.40;2.20;;;;;;;8.70;62.60;99059.42;468636;1195;104796;-41
2021/04/04 07:22:33;;;;;;;6.47;2.63;;;;;;;8.06;58.70;99067.20;469089;1196;103612;-40
2021/04/04 07:32:36;;;;;;;6.33;2.67;;;;;;;7.12;57.89;99073.27;469064;1195;103683;-41
2021/04/04 07:42:46;;;;;;;5.40;1.95;;;;;;;7.25;56.48;99072.50;468426;1196;103278;-42
2021/04/04 07:52:53;;;;;;;5.98;2.68;;;;;;;6.77;56.83;99075.12;469042;1196;103251;-40
2021/04/04 08:02:56;;;;;;;5.37;2.20;;;;;;;7.79;54.43;99072.41;468702;1196;103565;-41
2021/04/04 08:13:02;;;;;;;3.50;1.53;;;;;;;7.85;52.97;99071.63;468603;1196;104613;-40
2021/04/04 08:23:10;;;;;;;4.67;1.57;;;;;;;8.29;49.22;99075.50;468936;1195;103213;-41
2021/04/04 08:43:38;;;;;;;5.13;1.95;;;;;;;8.17;46.90;99064.75;468878;1196;103555;-42
2021/04/04 08:53:46;;;;;;;7.78;2.28;;;;;;;8.25;45.29;99064.53;468527;1196;103215;-41
2021/04/04 09:03:52;;;;;;;2.90;1.33;;;;;;;8.49;43.54;99060.48;468770;1196;103225;-40
2021/04/04 09:14:00;;;;;;;1.40;0.80;;;;;;;8.79;41.84;99065.30;468553;1196;103628;-42
2021/04/04 09:24:10;;;;;;;6.08;1.15;;;;;;;8.70;41.62;99064.70;469277;1196;103329;-41
2021/04/04 09:34:17;;;;;;;2.38;0.90;;;;;;;8.75;41.74;99042.98;468795;1195;103226;-41
2021/04/04 09:55:00;;;;;;;3.78;1.15;;;;;;;8.44;40.86;99041.84;468728;1196;103222;-41
2021/04/04 10:05:24;;;;;;;2.50;0.93;;;;;;;8.12;40.91;99040.84;468755;1196;103274;-41
2021/04/04 10:15:37;;;;;;;4.27;1.97;;;;;;;7.47;41.65;99041.59;468226;1195;103272;-41
2021/04/04 10:25:59;;;;;;;4.57;2.40;;;;;;;7.51;42.39;99022.58;468687;1195;103338;-43
2021/04/04 10:36:10;;;;;;;4.55;1.60;;;;;;;7.70;42.73;99013.09;468430;1196;103709;-41
2021/04/04 10:46:15;;;;;;;6.50;2.53;;;;;;;7.42;42.60;99010.63;468240;1196;103222;-40
2021/04/04 10:56:20;;;;;;;2.87;1.73;;;;;;;7.49;43.39;99000.11;468879;1196;103480;-41
2021/04/04 11:06:25;;;;;;;2.67;1.60;;;;;;;7.86;41.88;98991.64;469183;1196;103197;-41
2021/04/04 11:16:30;;;;;;;5.67;2.47;;;;;;;7.71;42.79;98983.13;469143;1196;103148;-41
2021/04/04 11:26:36;;;;;;;5.47;2.13;;;;;;;7.50;42.46;98985.94;468878;1196;103216;-41
2021/04/04 11:36:43;;;;;;;6.80;2.75;;;;;;;7.92;43.66;98971.58;468856;1196;103592;-41
2021/04/04 11:46:50;;;;;;;5.20;2.23;;;;;;;8.29;42.63;98970.92;468157;1196;103221;-41
2021/04/04 11:56:56;;;;;;;5.70;2.20;;;;;;;7.62;42.34;98958.03;468377;1196;103507;-41
2021/04/04 12:07:04;;;;;;;5.77;3.00;;;;;;;7.66;43.22;98954.78;469091;1196;103228;-41
2021/04/04 12:17:09;;;;;;;12.13;5.77;;;;;;;7.48;43.71;98941.41;468438;1196;103219;-43
2021/04/04 12:27:15;;;;;;;8.80;4.25;;;;;;;7.11;45.23;98934.91;468367;1196;103219;-41
2021/04/04 12:37:22;;;;;;;9.80;4.93;;;;;;;6.83;46.28;98929.77;468947;1196;103191;-41
2021/04/04 12:47:28;;;;;;;10.95;5.15;;;;;;;6.63;46.88;98913.96;468837;1196;103216;-40
2021/04/04 12:57:33;;;;;;;9.63;5.07;;;;;;;6.63;47.08;98894.77;468265;1196;104320;-42
2021/04/04 13:07:37;;;;;;;9.10;5.47;;;;;;;6.39;47.76;98883.77;469181;1196;103561;-40
2021/04/04 13:17:49;;;;;;;11.70;8.75;;;;;;;6.58;48.61;98879.56;468474;1196;103542;-41
2021/04/04 13:27:54;;;;;;;9.67;5.87;;;;;;;6.85;48.77;98861.23;468368;1196;103285;-40
2021/04/04 13:38:00;;;;;;;8.80;5.10;;;;;;;7.14;47.69;98852.19;468916;1196;103231;-42
2021/04/04 13:48:07;;;;;;;9.23;4.03;;;;;;;7.70;47.26;98831.48;469096;1196;104796;-40
2021/04/04 13:58:31;;;;;;;6.00;3.85;;;;;;;8.13;46.41;98815.95;468720;1196;103209;-41
2021/04/04 14:08:37;;;;;;;7.70;3.70;;;;;;;7.88;46.16;98791.34;468303;1196;103215;-41
2021/04/04 14:18:46;;;;;;;28.83;8.20;;;;;;;7.59;46.18;98784.75;468392;1195;103212;-43
2021/04/04 14:28:50;;;;;;;46.47;21.07;;;;;;;7.55;45.93;98775.63;469360;1196;103210;-41
2021/04/04 14:38:54;;;;;;;19.30;8.40;;;;;;;7.54;46.16;98769.56;468366;1196;104649;-41
2021/04/04 14:48:59;;;;;;;36.80;11.00;;;;;;;7.47;45.80;98758.25;468142;1196;103783;-41
2021/04/04 14:59:04;;;;;;;7.90;4.40;;;;;;;7.41;45.87;98742.49;468797;1196;103545;-41
2021/04/04 15:09:08;;;;;;;11.30;5.67;;;;;;;7.58;46.36;98719.98;469029;1196;103412;-42
2021/04/04 15:19:12;;;;;;;11.33;5.10;;;;;;;7.51;46.42;98721.81;468310;1196;103210;-41
2021/04/04 15:29:17;;;;;;;24.60;13.10;;;;;;;7.52;46.60;98710.27;468479;1195;103382;-41
2021/04/04 15:39:21;;;;;;;7.27;3.90;;;;;;;7.21;46.59;98706.52;469179;1196;103200;-40
2021/04/04 15:49:25;;;;;;;7.10;4.00;;;;;;;6.87;46.34;98707.59;468182;1196;103587;-41
2021/04/04 15:59:30;;;;;;;11.40;7.37;;;;;;;6.75;47.32;98693.44;468284;1196;103581;-40
2021/04/04 16:09:35;;;;;;;9.47;5.10;;;;;;;6.65;47.56;98672.84;468767;1196;103140;-41
2021/04/04 16:19:39;;;;;;;13.03;6.03;;;;;;;6.50;48.01;98672.22;468533;1196;103227;-43
2021/04/04 16:29:44;;;;;;;12.13;6.93;;;;;;;6.45;48.29;98653.64;468195;1196;103229;-41
2021/04/04 16:39:48;;;;;;;19.43;6.20;;;;;;;6.37;48.74;98640.69;468497;1195;103214;-41
2021/04/04 16:49:53;;;;;;;12.83;6.57;;;;;;;6.23;48.58;98631.22;468758;1196;103140;-42
2021/04/04 17:00:01;;;;;;;18.25;8.50;;;;;;;5.95;49.09;98619.08;468344;1196;104242;-40
2021/04/04 17:10:08;;;;;;;20.13;7.93;;;;;;;5.79;49.42;98608.92;468627;1195;103269;-41
2021/04/04 17:20:17;;;;;;;17.00;8.63;;;;;;;5.43;49.39;98603.97;469013;1196;103260;-41
2021/04/04 17:30:23;;;;;;;23.00;10.90;;;;;;;5.18;49.83;98594.00;469314;1195;104681;-41
2021/04/04 17:40:28;;;;;;;41.00;19.35;;;;;;;4.71;50.15;98580.88;468293;1196;103277;-41
2021/04/04 17:50:33;;;;;;;55.13;24.17;;;;;;;4.46;50.67;98591.00;468477;1196;103494;-41
2021/04/04 18:00:38;;;;;;;39.20;19.77;;;;;;;4.18;50.83;98583.95;469303;1195;103600;-40
2021/04/04 18:21:20;;;;;;;36.40;16.90;;;;;;;3.59;51.74;98568.56;467966;1200;103481;-39
2021/04/04 18:31:24;;;;;;;32.47;16.87;;;;;;;3.45;52.00;98576.45;467981;1199;103766;-42
2021/04/04 18:41:28;;;;;;;39.00;18.40;;;;;;;3.32;52.29;98561.45;468289;1199;103328;-41
2021/04/04 18:51:32;;;;;;;85.87;35.93;;;;;;;3.08;52.74;98546.91;468622;1196;103318;-41
2021/04/04 19:01:36;;;;;;;40.83;18.60;;;;;;;2.96;53.07;98553.59;469183;1196;103219;-41
2021/04/04 19:11:40;;;;;;;42.20;20.43;;;;;;;2.73;53.81;98531.02;468347;1196;103207;-40
2021/04/04 19:21:45;;;;;;;54.70;22.27;;;;;;;2.62;54.32;98515.02;468360;1196;103322;-41
2021/04/04 19:31:50;;;;;;;62.03;26.27;;;;;;;2.46;54.50;98503.77;469025;1196;103213;-40
2021/04/04 19:41:55;;;;;;;64.15;29.20;;;;;;;2.32;55.02;98491.52;468700;1196;103213;-41
2021/04/04 19:52:00;;;;;;;68.63;29.27;;;;;;;2.15;54.99;98490.09;468067;1196;104675;-40
2021/04/04 20:02:07;;;;;;;69.97;31.83;;;;;;;2.14;55.90;98473.64;468991;1195;103295;-42
2021/04/04 20:12:12;;;;;;;94.43;44.03;;;;;;;2.08;56.04;98453.47;468170;1196;103278;-42
2021/04/04 20:22:16;;;;;;;56.07;26.40;;;;;;;1.98;56.10;98459.95;469171;1196;103622;-41
2021/04/04 20:32:21;;;;;;;106.30;47.47;;;;;;;1.93;55.81;98444.04;468428;1196;103255;-41
2021/04/04 20:42:28;;;;;;;50.20;21.87;;;;;;;1.81;56.45;98425.41;468746;1196;103583;-41
2021/04/04 20:52:34;;;;;;;40.63;20.20;;;;;;;1.72;57.02;98411.66;468200;1195;103225;-41
2021/04/04 21:02:39;;;;;;;71.05;25.65;;;;;;;1.77;57.38;98409.31;468709;1196;103206;-41
2021/04/04 21:12:44;;;;;;;55.87;22.23;;;;;;;1.71;57.21;98404.83;469003;1196;103555;-41
2021/04/04 21:33:08;;;;;;;58.83;22.58;;;;;;;1.64;57.32;98366.60;468173;1196;103232;-42
2021/04/04 21:43:37;;;;;;;56.93;22.23;;;;;;;1.58;57.79;98355.10;468543;1196;103469;-41
2021/04/04 21:53:42;;;;;;;44.17;21.87;;;;;;;1.59;57.46;98338.48;468816;1196;103608;-40
2021/04/04 22:03:47;;;;;;;50.97;22.43;;;;;;;1.60;57.99;98319.25;468508;1196;103213;-42
2021/04/04 22:13:53;;;;;;;48.90;21.90;;;;;;;1.66;57.80;98302.91;469161;1196;103594;-41
2021/04/04 22:23:57;;;;;;;57.10;23.60;;;;;;;1.64;58.27;98272.78;468986;1196;103257;-41
2021/04/04 22:34:02;;;;;;;54.80;25.80;;;;;;;1.66;58.44;98250.78;468792;1196;103187;-41
2021/04/04 22:44:07;;;;;;;62.85;27.05;;;;;;;1.62;58.42;98235.67;468092;1196;103520;-41
2021/04/04 22:54:12;;;;;;;68.47;30.17;;;;;;;1.59;58.24;98216.00;469013;1195;103257;-40
2021/04/04 23:04:16;;;;;;;59.03;26.10;;;;;;;1.66;58.59;98198.66;468681;1196;103580;-41
2021/04/04 23:14:20;;;;;;;54.03;24.37;;;;;;;1.64;58.24;98178.96;468655;1196;103248;-40
2021/04/04 23:24:27;;;;;;;59.43;26.60;;;;;;;1.63;58.50;98156.50;469116;1196;103495;-41
2021/04/04 23:34:31;;;;;;;59.70;27.70;;;;;;;1.59;58.51;98161.27;468513;1196;103210;-40
2021/04/04 23:44:35;;;;;;;67.27;30.13;;;;;;;1.58;58.72;98130.19;468858;1196;103604;-40
2021/04/04 23:54:39;;;;;;;55.03;25.00;;;;;;;1.55;59.02;98123.55;468657;1196;103300;-41
